Time;durP1;ratioP1;P1;durP2;ratioP2;P2;SDS_P1;SDS_P2;PMS_P1;PMS_P2;Temp;Humidity;BMP_temperature;BMP_pressure;BME280_temperature;BME280_humidity;BME280_pressure;Samples;Min_cycle;Max_cycle;Signal;HPM_P1;HPM_P2
2022/11/04 00:01:31;;;;;;;0.77;0.43;;;9.80;99.90;;;;;;5093251;28;20487;-80
2022/11/04 00:03:58;;;;;;;0.60;0.60;;;9.80;99.90;;;;;;5093269;28;20451;-80
2022/11/04 00:06:27;;;;;;;0.60;0.30;;;9.90;99.90;;;;;;5093403;28;20448;-80
2022/11/04 00:08:55;;;;;;;0.70;0.33;;;9.80;99.90;;;;;;5093434;28;20448;-79
2022/11/04 00:14:08;;;;;;;0.30;0.30;;;9.80;99.90;;;;;;5093112;28;20412;-79
2022/11/04 00:19:20;;;;;;;0.40;0.30;;;9.70;99.90;;;;;;5093464;28;20404;-79
2022/11/04 00:30:04;;;;;;;0.30;0.20;;;9.70;99.90;;;;;;5096780;28;20457;-79
2022/11/04 00:35:17;;;;;;;0.50;0.30;;;9.70;99.90;;;;;;5097027;28;20408;-80
2022/11/04 00:37:46;;;;;;;0.30;0.20;;;9.80;99.90;;;;;;5096555;28;20448;-80
2022/11/04 00:40:15;;;;;;;0.30;0.30;;;9.80;99.90;;;;;;5096780;28;20445;-80
2022/11/04 00:42:44;;;;;;;0.30;0.20;;;9.90;99.90;;;;;;5096706;28;20466;-80
2022/11/04 00:45:11;;;;;;;0.30;0.20;;;9.90;99.90;;;;;;5096608;28;20457;-80
2022/11/04 00:47:38;;;;;;;0.30;0.30;;;10.00;99.90;;;;;;5096881;28;20449;-80
2022/11/04 00:50:06;;;;;;;0.30;0.30;;;10.00;99.90;;;;;;5096585;28;20447;-79
2022/11/04 00:52:33;;;;;;;0.50;0.30;;;10.00;99.90;;;;;;5096099;28;21017;-79
2022/11/04 00:55:01;;;;;;;0.40;0.30;;;10.00;99.90;;;;;;5096376;28;20822;-80
2022/11/04 00:57:28;;;;;;;0.30;0.20;;;10.10;99.90;;;;;;5096152;28;20792;-79
2022/11/04 00:59:54;;;;;;;0.40;0.30;;;10.00;99.90;;;;;;5096305;28;20451;-79
2022/11/04 01:02:22;;;;;;;0.47;0.30;;;9.90;99.90;;;;;;5096341;28;20460;-79
2022/11/04 01:04:49;;;;;;;0.33;0.27;;;9.90;99.90;;;;;;5095987;28;20454;-80
2022/11/04 01:07:15;;;;;;;0.30;0.30;;;9.90;99.90;;;;;;5096396;28;20455;-80
2022/11/04 01:09:42;;;;;;;0.30;0.30;;;9.90;99.90;;;;;;5095922;28;20448;-80
2022/11/04 01:12:10;;;;;;;0.30;0.30;;;9.90;99.90;;;;;;5096057;28;20495;-80
2022/11/04 01:14:37;;;;;;;0.40;0.30;;;9.90;99.90;;;;;;5096645;28;20821;-80
2022/11/04 01:17:04;;;;;;;0.50;0.50;;;9.90;99.90;;;;;;5095789;28;20484;-80
2022/11/04 01:19:31;;;;;;;0.40;0.30;;;9.80;99.90;;;;;;5095771;28;20939;-80
2022/11/04 01:21:58;;;;;;;1.23;0.30;;;9.80;99.90;;;;;;5095946;28;20461;-80
2022/11/04 01:24:24;;;;;;;0.30;0.20;;;9.80;99.90;;;;;;5095922;28;20449;-79
2022/11/04 01:26:51;;;;;;;0.40;0.30;;;9.80;99.90;;;;;;5096135;28;20444;-80
2022/11/04 01:29:19;;;;;;;0.30;0.30;;;9.80;99.90;;;;;;5095856;28;20448;-80
2022/11/04 01:31:46;;;;;;;0.50;0.50;;;9.80;99.90;;;;;;5095366;28;20979;-80
2022/11/04 01:34:13;;;;;;;0.40;0.40;;;9.80;99.90;;;;;;5095471;28;20449;-80
2022/11/04 01:36:39;;;;;;;0.30;0.20;;;9.90;99.90;;;;;;5095694;28;20448;-80
2022/11/04 01:39:06;;;;;;;1.33;0.60;;;9.90;99.90;;;;;;5094588;28;20836;-80
2022/11/04 01:41:34;;;;;;;0.40;0.30;;;9.90;99.90;;;;;;5095440;28;20983;-80
2022/11/04 01:44:02;;;;;;;0.77;0.40;;;9.80;99.90;;;;;;5095590;28;20451;-80
2022/11/04 01:46:38;;;;;;;0.30;0.20;;;9.90;99.90;;;;;;5095494;28;20448;-80
2022/11/04 01:49:22;;;;;;;0.30;0.27;;;9.90;99.90;;;;;;5095493;28;20428;-80
2022/11/04 01:51:53;;;;;;;1.03;0.40;;;9.90;99.90;;;;;;5095372;28;20461;-80
2022/11/04 01:54:20;;;;;;;0.30;0.20;;;9.90;99.90;;;;;;5095460;28;20433;-80
2022/11/04 01:56:49;;;;;;;0.30;0.30;;;9.90;99.90;;;;;;5095399;28;20553;-80
2022/11/04 01:59:21;;;;;;;0.30;0.20;;;9.90;99.90;;;;;;5095298;28;20457;-80
2022/11/04 02:01:49;;;;;;;0.37;0.37;;;9.90;99.90;;;;;;5094963;28;20979;-80
2022/11/04 02:04:25;;;;;;;0.70;0.30;;;9.90;99.90;;;;;;5095183;28;20457;-80
2022/11/04 02:06:54;;;;;;;0.40;0.30;;;9.80;99.90;;;;;;5094891;28;20479;-80
2022/11/04 02:09:22;;;;;;;0.30;0.30;;;9.80;99.90;;;;;;5094737;28;20966;-80
2022/11/04 02:14:35;;;;;;;0.30;0.30;;;9.80;99.90;;;;;;5095106;28;20408;-80
2022/11/04 02:17:11;;;;;;;0.80;0.80;;;9.70;99.90;;;;;;5094674;28;20484;-80
2022/11/04 02:20:01;;;;;;;0.33;0.27;;;9.70;99.90;;;;;;5094907;28;20512;-80
2022/11/04 02:23:06;;;;;;;0.40;0.40;;;9.70;99.90;;;;;;5095214;28;20472;-80
2022/11/04 02:25:49;;;;;;;0.30;0.30;;;9.60;99.90;;;;;;5094736;28;20429;-80
2022/11/04 02:28:50;;;;;;;0.30;0.30;;;9.60;99.90;;;;;;5094731;28;20425;-80
2022/11/04 02:31:29;;;;;;;0.40;0.37;;;9.70;99.90;;;;;;5094487;28;20444;-80
2022/11/04 02:34:05;;;;;;;1.23;0.53;;;9.60;99.90;;;;;;5094494;28;20471;-80
2022/11/04 02:36:41;;;;;;;0.40;0.30;;;9.60;99.90;;;;;;5094637;28;20439;-80
2022/11/04 02:39:16;;;;;;;0.40;0.30;;;9.60;99.90;;;;;;5094566;28;20839;-80
2022/11/04 02:41:51;;;;;;;0.30;0.27;;;9.50;99.90;;;;;;5094410;28;20467;-80
2022/11/04 02:44:21;;;;;;;0.30;0.30;;;9.40;99.90;;;;;;5094409;28;20436;-81
2022/11/04 02:46:53;;;;;;;0.30;0.30;;;9.30;99.90;;;;;;5094403;28;20439;-80
2022/11/04 02:49:25;;;;;;;0.30;0.30;;;9.30;99.90;;;;;;5094043;28;20469;-80
2022/11/04 02:51:56;;;;;;;0.30;0.20;;;9.30;99.90;;;;;;5094318;28;20472;-80
2022/11/04 02:54:27;;;;;;;0.30;0.20;;;9.30;99.90;;;;;;5095153;28;20462;-80
2022/11/04 02:56:58;;;;;;;0.30;0.30;;;9.20;99.90;;;;;;5093896;28;20427;-80
2022/11/04 02:59:32;;;;;;;0.30;0.30;;;9.20;99.90;;;;;;5094114;28;20461;-80
2022/11/04 03:02:03;;;;;;;0.30;0.30;;;9.20;99.90;;;;;;5094027;28;20909;-80
2022/11/04 03:04:34;;;;;;;0.30;0.20;;;9.20;99.90;;;;;;5094038;28;20523;-80
2022/11/04 03:07:04;;;;;;;0.30;0.30;;;9.20;99.90;;;;;;5094004;28;20437;-79
2022/11/04 03:09:34;;;;;;;0.40;0.37;;;9.20;99.90;;;;;;5093908;28;20436;-80
2022/11/04 03:12:05;;;;;;;0.30;0.20;;;9.20;99.90;;;;;;5093695;28;20539;-80
2022/11/04 03:14:37;;;;;;;0.30;0.30;;;9.20;99.90;;;;;;5093850;28;20809;-80
2022/11/04 03:17:09;;;;;;;0.30;0.30;;;9.20;99.90;;;;;;5093517;28;20476;-80
2022/11/04 03:19:40;;;;;;;0.30;0.20;;;9.10;99.90;;;;;;5093990;28;20435;-80
2022/11/04 03:22:14;;;;;;;0.30;0.20;;;9.10;99.90;;;;;;5093638;28;20464;-80
2022/11/04 03:24:44;;;;;;;0.30;0.30;;;9.00;99.90;;;;;;5094171;28;20451;-80
2022/11/04 03:27:20;;;;;;;0.30;0.30;;;9.10;99.90;;;;;;5093815;28;20457;-80
2022/11/04 03:29:55;;;;;;;0.30;0.30;;;9.00;99.90;;;;;;5093610;28;20436;-80
2022/11/04 03:32:29;;;;;;;1.13;0.50;;;9.00;99.90;;;;;;5093234;28;20801;-80
2022/11/04 03:34:56;;;;;;;0.30;0.20;;;9.00;99.90;;;;;;5093388;28;20429;-80
2022/11/04 03:37:23;;;;;;;0.30;0.30;;;9.00;99.90;;;;;;5093459;28;20540;-80
2022/11/04 03:39:50;;;;;;;3.13;0.40;;;9.00;99.90;;;;;;5093396;28;20452;-80
2022/11/04 03:42:22;;;;;;;0.30;0.30;;;9.00;99.90;;;;;;5092920;28;20810;-80
2022/11/04 03:44:50;;;;;;;0.47;0.40;;;8.90;99.90;;;;;;5093484;28;20533;-81
2022/11/04 03:47:17;;;;;;;0.37;0.30;;;8.90;99.90;;;;;;5093233;28;20444;-81
2022/11/04 03:49:47;;;;;;;0.30;0.20;;;8.80;99.90;;;;;;5093168;28;20456;-81
2022/11/04 03:52:14;;;;;;;0.40;0.30;;;8.90;99.90;;;;;;5092908;28;20837;-81
2022/11/04 03:54:42;;;;;;;0.50;0.40;;;8.90;99.90;;;;;;5092845;28;20813;-81
2022/11/04 03:57:23;;;;;;;0.30;0.30;;;8.90;99.90;;;;;;5093204;28;20528;-81
2022/11/04 04:00:07;;;;;;;0.30;0.20;;;8.90;99.90;;;;;;5093276;28;20429;-81
2022/11/04 04:02:58;;;;;;;0.30;0.30;;;8.90;99.90;;;;;;5095418;28;20879;-81
2022/11/04 04:05:29;;;;;;;0.30;0.30;;;8.90;99.90;;;;;;5097343;28;20433;-81
2022/11/04 04:08:09;;;;;;;0.40;0.30;;;8.90;99.90;;;;;;5097438;28;20436;-81
2022/11/04 04:10:42;;;;;;;0.50;0.30;;;8.90;99.90;;;;;;5097257;28;20439;-81
2022/11/04 04:13:17;;;;;;;0.57;0.57;;;8.90;99.90;;;;;;5097151;28;20495;-81
2022/11/04 04:15:49;;;;;;;0.30;0.20;;;8.80;99.90;;;;;;5097049;28;20957;-81
2022/11/04 04:18:21;;;;;;;0.30;0.20;;;8.80;99.90;;;;;;5097001;28;20476;-81
2022/11/04 04:20:52;;;;;;;0.30;0.30;;;8.80;99.90;;;;;;5097055;28;20432;-81
2022/11/04 04:29:10;;;;;;;0.40;0.40;;;8.70;99.90;;;;;;5034404;28;20768;-81
2022/11/04 04:31:51;;;;;;;0.30;0.30;;;8.70;99.90;;;;;;5070060;28;20468;-81
2022/11/04 04:34:21;;;;;;;0.30;0.20;;;8.70;99.90;;;;;;5096838;28;20464;-81
2022/11/04 04:36:54;;;;;;;0.90;0.30;;;8.70;99.90;;;;;;5097203;28;20440;-81
2022/11/04 04:44:59;;;;;;;0.30;0.20;;;8.70;99.90;;;;;;5096719;28;20405;-81
2022/11/04 04:47:31;;;;;;;0.30;0.30;;;8.70;99.90;;;;;;5096767;28;20439;-81
2022/11/04 04:50:00;;;;;;;0.30;0.30;;;8.70;99.90;;;;;;5096190;28;20433;-81
2022/11/04 04:52:30;;;;;;;0.30;0.30;;;8.70;99.90;;;;;;5096357;28;20479;-81
2022/11/04 04:54:57;;;;;;;0.40;0.30;;;8.70;99.90;;;;;;5096595;28;20436;-81
2022/11/04 04:57:24;;;;;;;0.80;0.30;;;8.70;99.90;;;;;;5096147;28;20451;-81
2022/11/04 04:59:51;;;;;;;0.30;0.30;;;8.70;99.90;;;;;;5096020;28;20452;-81
2022/11/04 05:02:17;;;;;;;0.40;0.30;;;8.60;99.90;;;;;;5096242;28;20460;-81
2022/11/04 05:04:44;;;;;;;0.30;0.20;;;8.60;99.90;;;;;;5095950;28;20452;-81
2022/11/04 05:07:11;;;;;;;0.90;0.40;;;8.60;99.90;;;;;;5096132;28;20444;-81
2022/11/04 05:09:39;;;;;;;0.30;0.30;;;8.60;99.90;;;;;;5096282;28;20448;-81
2022/11/04 05:12:06;;;;;;;0.37;0.30;;;8.60;99.90;;;;;;5095939;28;20464;-81
2022/11/04 05:14:33;;;;;;;0.57;0.30;;;8.60;99.90;;;;;;5095900;28;20484;-82
2022/11/04 05:17:00;;;;;;;0.30;0.30;;;8.50;99.90;;;;;;5095610;28;20476;-81
2022/11/04 05:19:27;;;;;;;0.30;0.30;;;8.50;99.90;;;;;;5095952;28;20449;-81
2022/11/04 05:21:55;;;;;;;0.40;0.30;;;8.50;99.90;;;;;;5095864;28;20548;-81
2022/11/04 05:24:22;;;;;;;0.40;0.40;;;8.50;99.90;;;;;;5095790;28;20494;-81
2022/11/04 05:26:50;;;;;;;0.30;0.30;;;8.50;99.90;;;;;;5095577;28;20449;-81
2022/11/04 05:29:16;;;;;;;0.30;0.20;;;8.40;99.90;;;;;;5095997;28;20820;-81
2022/11/04 05:31:43;;;;;;;0.30;0.20;;;8.40;99.90;;;;;;5096280;28;20472;-81
2022/11/04 05:34:11;;;;;;;1.07;0.30;;;8.40;99.90;;;;;;5095629;28;20506;-81
2022/11/04 05:36:37;;;;;;;0.30;0.30;;;8.40;99.90;;;;;;5095538;28;20451;-81
2022/11/04 05:39:05;;;;;;;0.30;0.20;;;8.40;99.90;;;;;;5095647;28;20525;-81
2022/11/04 05:41:31;;;;;;;0.30;0.30;;;8.40;99.90;;;;;;5095109;28;20987;-81
2022/11/04 05:44:02;;;;;;;0.30;0.30;;;8.40;99.90;;;;;;5095454;28;20453;-81
2022/11/04 05:46:29;;;;;;;0.40;0.37;;;8.30;99.90;;;;;;5095486;28;20437;-81
2022/11/04 05:48:56;;;;;;;0.50;0.40;;;8.30;99.90;;;;;;5094953;28;20948;-81
2022/11/04 05:51:26;;;;;;;0.30;0.20;;;8.30;99.90;;;;;;5095017;28;20969;-81
2022/11/04 05:53:53;;;;;;;0.73;0.40;;;8.30;99.90;;;;;;5095230;28;20484;-81
2022/11/04 05:56:19;;;;;;;0.30;0.30;;;8.30;99.90;;;;;;5095468;28;20455;-81
2022/11/04 05:58:46;;;;;;;0.40;0.30;;;8.30;99.90;;;;;;5095383;28;20449;-80
2022/11/04 06:01:25;;;;;;;0.30;0.30;;;8.30;99.90;;;;;;5095233;28;20891;-81
2022/11/04 06:03:52;;;;;;;0.30;0.30;;;8.40;99.90;;;;;;5094943;28;20456;-81
2022/11/04 06:06:19;;;;;;;0.30;0.30;;;8.40;99.90;;;;;;5094954;28;20456;-81
2022/11/04 06:08:46;;;;;;;0.40;0.40;;;8.40;99.90;;;;;;5094731;28;20969;-81
2022/11/04 06:11:13;;;;;;;0.30;0.20;;;8.30;99.90;;;;;;5094974;28;20451;-81
2022/11/04 06:13:40;;;;;;;0.30;0.20;;;8.30;99.90;;;;;;5094808;28;20476;-81
2022/11/04 06:16:07;;;;;;;0.30;0.30;;;8.40;99.90;;;;;;5094935;28;20466;-81
2022/11/04 06:18:35;;;;;;;0.30;0.20;;;8.30;99.90;;;;;;5094945;28;20432;-81
2022/11/04 06:21:10;;;;;;;0.30;0.30;;;8.30;99.90;;;;;;5094378;28;20958;-81
2022/11/04 06:23:37;;;;;;;0.30;0.30;;;8.40;99.90;;;;;;5094354;28;20461;-81
2022/11/04 06:26:04;;;;;;;0.40;0.40;;;8.40;99.90;;;;;;5093955;28;20445;-81
2022/11/04 06:28:30;;;;;;;0.50;0.40;;;8.30;99.90;;;;;;5094626;28;20436;-81
2022/11/04 06:30:58;;;;;;;0.40;0.40;;;8.30;99.90;;;;;;5094299;28;20963;-81
2022/11/04 06:33:25;;;;;;;0.30;0.20;;;8.30;99.90;;;;;;5094068;28;20995;-81
2022/11/04 06:35:56;;;;;;;0.30;0.30;;;8.30;99.90;;;;;;5094869;28;20803;-81
2022/11/04 06:38:23;;;;;;;0.33;0.33;;;8.30;99.90;;;;;;5094648;28;20439;-81
2022/11/04 06:40:50;;;;;;;0.30;0.20;;;8.20;99.90;;;;;;5094264;28;20453;-81
2022/11/04 06:43:17;;;;;;;0.30;0.30;;;8.20;99.90;;;;;;5094656;28;20469;-82
2022/11/04 06:45:43;;;;;;;0.50;0.50;;;8.30;99.90;;;;;;5094702;28;20445;-81
2022/11/04 06:48:10;;;;;;;0.40;0.30;;;8.30;99.90;;;;;;5094400;28;20455;-81
2022/11/04 06:50:37;;;;;;;0.30;0.30;;;8.20;99.90;;;;;;5094425;28;20440;-82
2022/11/04 06:53:05;;;;;;;0.30;0.30;;;8.20;99.90;;;;;;5094271;28;20472;-82
2022/11/04 06:55:32;;;;;;;0.30;0.30;;;8.30;99.90;;;;;;5094326;28;20471;-81
2022/11/04 06:57:58;;;;;;;0.67;0.40;;;8.30;99.90;;;;;;5093932;28;20460;-81
2022/11/04 07:00:25;;;;;;;0.40;0.40;;;8.30;99.90;;;;;;5094241;28;20460;-81
2022/11/04 07:02:52;;;;;;;0.30;0.30;;;8.30;99.90;;;;;;5093816;28;21001;-81
2022/11/04 07:05:19;;;;;;;0.30;0.20;;;8.30;99.90;;;;;;5094152;28;20444;-82
2022/11/04 07:07:45;;;;;;;0.40;0.40;;;8.30;99.90;;;;;;5094076;28;20444;-82
2022/11/04 07:10:14;;;;;;;0.30;0.30;;;8.30;99.90;;;;;;5094605;28;20530;-82
2022/11/04 07:12:40;;;;;;;0.40;0.37;;;8.40;99.90;;;;;;5093924;28;20465;-82
2022/11/04 07:15:08;;;;;;;0.40;0.30;;;8.40;99.90;;;;;;5093754;28;20490;-80
2022/11/04 07:17:35;;;;;;;0.30;0.20;;;8.50;99.90;;;;;;5093778;28;20491;-79
2022/11/04 07:20:01;;;;;;;0.30;0.30;;;8.40;99.90;;;;;;5094169;28;20448;-79
2022/11/04 07:22:28;;;;;;;0.30;0.30;;;8.50;99.90;;;;;;5093812;28;20475;-80
2022/11/04 07:24:55;;;;;;;0.67;0.30;;;8.50;99.90;;;;;;5093468;28;20455;-79
2022/11/04 07:27:23;;;;;;;0.30;0.20;;;8.60;99.90;;;;;;5093959;28;20452;-79
2022/11/04 07:29:50;;;;;;;0.30;0.30;;;8.70;99.90;;;;;;5093733;28;20455;-79
2022/11/04 07:32:17;;;;;;;0.60;0.30;;;8.60;99.90;;;;;;5093589;28;20468;-80
2022/11/04 07:34:43;;;;;;;0.40;0.30;;;8.60;99.90;;;;;;5094113;28;20484;-80
2022/11/04 07:37:10;;;;;;;0.30;0.30;;;8.60;99.90;;;;;;5092428;28;20456;-80
2022/11/04 07:39:37;;;;;;;0.30;0.23;;;8.70;99.90;;;;;;5093530;28;20813;-80
2022/11/04 07:42:04;;;;;;;0.30;0.30;;;8.70;99.90;;;;;;5093192;28;20979;-80
2022/11/04 07:44:32;;;;;;;0.30;0.30;;;8.80;99.90;;;;;;5093488;28;20444;-80
2022/11/04 07:46:59;;;;;;;0.87;0.30;;;8.80;99.90;;;;;;5093403;28;20444;-80
2022/11/04 07:49:25;;;;;;;0.40;0.30;;;8.90;99.90;;;;;;5093502;28;20440;-80
2022/11/04 07:51:53;;;;;;;0.30;0.30;;;9.00;99.90;;;;;;5093366;28;20460;-80
2022/11/04 07:54:19;;;;;;;0.30;0.30;;;8.90;99.90;;;;;;5093178;28;21038;-80
2022/11/04 07:56:46;;;;;;;0.30;0.30;;;9.00;99.90;;;;;;5093708;28;20447;-80
2022/11/04 07:59:13;;;;;;;0.30;0.30;;;9.00;99.90;;;;;;5093939;28;20428;-80
2022/11/04 08:01:41;;;;;;;0.30;0.30;;;9.00;99.90;;;;;;5093151;28;20472;-80
2022/11/04 08:04:08;;;;;;;0.30;0.20;;;9.00;99.90;;;;;;5093324;28;20491;-81
2022/11/04 08:06:35;;;;;;;0.40;0.37;;;9.00;99.90;;;;;;5093331;28;20494;-81
2022/11/04 08:09:01;;;;;;;0.30;0.30;;;8.90;99.90;;;;;;5092978;28;21016;-81
2022/11/04 08:11:28;;;;;;;0.60;0.40;;;9.00;99.90;;;;;;5093167;28;20444;-81
2022/11/04 08:13:56;;;;;;;0.30;0.30;;;9.00;99.90;;;;;;5093208;28;20480;-80
2022/11/04 08:16:24;;;;;;;1.17;0.30;;;9.10;99.90;;;;;;5092827;28;20862;-81
2022/11/04 08:18:53;;;;;;;0.30;0.20;;;9.30;99.90;;;;;;5093155;28;20540;-81
2022/11/04 08:21:21;;;;;;;0.40;0.40;;;9.30;99.90;;;;;;5092726;28;20449;-80
2022/11/04 08:23:50;;;;;;;0.30;0.20;;;9.40;99.90;;;;;;5093128;28;20480;-80
2022/11/04 08:26:18;;;;;;;0.40;0.30;;;9.40;99.90;;;;;;5092756;28;20966;-80
2022/11/04 08:28:45;;;;;;;0.40;0.30;;;9.50;99.90;;;;;;5092788;28;20463;-81
2022/11/04 08:31:16;;;;;;;0.30;0.20;;;9.40;99.90;;;;;;5092674;28;20459;-81
2022/11/04 08:33:43;;;;;;;2.00;0.40;;;9.40;99.90;;;;;;5093007;28;20440;-81
2022/11/04 08:36:15;;;;;;;0.30;0.30;;;9.40;99.90;;;;;;5092993;28;20810;-81
2022/11/04 08:38:42;;;;;;;0.30;0.30;;;9.50;99.90;;;;;;5093060;28;20433;-81
2022/11/04 08:41:11;;;;;;;0.30;0.30;;;9.60;99.90;;;;;;5092955;28;20441;-81
2022/11/04 08:43:37;;;;;;;0.50;0.30;;;9.50;99.90;;;;;;5093210;28;20444;-81
2022/11/04 08:46:06;;;;;;;0.30;0.27;;;9.70;99.90;;;;;;5093174;28;20452;-80
2022/11/04 08:48:35;;;;;;;0.60;0.30;;;9.80;99.90;;;;;;5095280;28;20452;-81
2022/11/04 08:51:02;;;;;;;0.40;0.40;;;9.90;99.90;;;;;;5096580;28;20816;-81
2022/11/04 08:53:30;;;;;;;0.30;0.20;;;10.00;99.90;;;;;;5096226;28;20483;-80
2022/11/04 08:55:57;;;;;;;0.30;0.30;;;10.10;99.90;;;;;;5096766;28;20487;-80
2022/11/04 08:58:24;;;;;;;0.40;0.30;;;10.10;99.90;;;;;;5096530;28;20449;-81
2022/11/04 09:00:51;;;;;;;0.30;0.30;;;10.10;99.90;;;;;;5096406;28;20453;-81
2022/11/04 09:03:18;;;;;;;0.30;0.30;;;10.00;99.90;;;;;;5096123;28;20840;-81
2022/11/04 09:05:47;;;;;;;1.40;0.30;;;10.00;99.90;;;;;;5096931;28;20454;-81
2022/11/04 09:08:15;;;;;;;0.30;0.30;;;10.10;99.90;;;;;;5096164;28;20494;-81
2022/11/04 09:10:44;;;;;;;0.40;0.30;;;10.20;99.90;;;;;;5096381;28;20452;-81
2022/11/04 09:13:26;;;;;;;0.30;0.30;;;10.20;99.90;;;;;;5096236;28;20479;-81
2022/11/04 09:15:54;;;;;;;0.30;0.30;;;10.20;99.90;;;;;;5095892;28;20557;-81
2022/11/04 09:18:21;;;;;;;0.30;0.30;;;10.10;99.90;;;;;;5095732;28;21001;-81
2022/11/04 09:20:47;;;;;;;0.40;0.30;;;10.20;99.90;;;;;;5096205;28;20437;-81
2022/11/04 09:23:14;;;;;;;0.40;0.30;;;10.20;99.90;;;;;;5096026;28;20474;-81
2022/11/04 09:25:41;;;;;;;0.30;0.23;;;10.30;99.90;;;;;;5096115;28;20441;-81
2022/11/04 09:28:09;;;;;;;0.40;0.33;;;10.30;99.90;;;;;;5095896;28;20822;-81
2022/11/04 09:30:37;;;;;;;0.30;0.30;;;10.40;99.90;;;;;;5095966;28;20440;-81
2022/11/04 09:33:04;;;;;;;0.40;0.30;;;10.30;99.90;;;;;;5095553;28;21107;-84
2022/11/04 09:35:31;;;;;;;1.53;0.40;;;10.40;99.90;;;;;;5096412;28;20472;-84
2022/11/04 09:38:00;;;;;;;0.40;0.30;;;10.40;99.90;;;;;;5095635;28;20969;-84
2022/11/04 09:40:27;;;;;;;0.60;0.30;;;10.60;99.90;;;;;;5095853;28;20491;-84
2022/11/04 09:43:05;;;;;;;0.60;0.40;;;10.60;99.90;;;;;;5095350;28;20867;-83
2022/11/04 09:45:33;;;;;;;0.30;0.30;;;10.70;99.90;;;;;;5095749;28;20425;-84
2022/11/04 09:48:04;;;;;;;0.30;0.30;;;10.70;99.90;;;;;;5095657;28;20445;-84
2022/11/04 09:50:37;;;;;;;0.80;0.40;;;10.70;99.90;;;;;;5095601;28;20444;-84
2022/11/04 09:53:08;;;;;;;0.30;0.30;;;10.80;99.90;;;;;;5095445;28;20468;-82
2022/11/04 09:55:41;;;;;;;0.40;0.30;;;10.90;99.90;;;;;;5095361;28;20469;-82
2022/11/04 09:58:11;;;;;;;0.40;0.30;;;11.00;99.90;;;;;;5095449;28;20783;-82
2022/11/04 10:00:40;;;;;;;0.30;0.30;;;11.00;99.90;;;;;;5094361;28;20440;-82
2022/11/04 10:03:20;;;;;;;0.40;0.30;;;11.10;99.90;;;;;;5094846;28;20476;-82
2022/11/04 10:05:58;;;;;;;0.40;0.30;;;11.20;99.90;;;;;;5095288;28;20439;-82
2022/11/04 10:08:38;;;;;;;0.30;0.20;;;11.30;99.90;;;;;;5095360;28;20432;-82
2022/11/04 10:11:10;;;;;;;0.30;0.20;;;11.30;99.90;;;;;;5094773;28;20910;-82
2022/11/04 10:13:53;;;;;;;0.30;0.30;;;11.40;99.90;;;;;;5095334;28;20441;-82
2022/11/04 10:16:34;;;;;;;0.30;0.30;;;11.40;99.90;;;;;;5094864;28;20480;-82
2022/11/04 10:19:19;;;;;;;0.30;0.20;;;11.40;99.90;;;;;;5094730;28;20969;-82
2022/11/04 10:21:57;;;;;;;0.30;0.30;;;11.40;99.90;;;;;;5094919;28;20475;-83
2022/11/04 10:24:31;;;;;;;0.40;0.30;;;11.50;99.90;;;;;;5095018;28;20429;-83
2022/11/04 10:27:03;;;;;;;0.40;0.33;;;11.60;99.90;;;;;;5094903;28;20439;-83
2022/11/04 10:29:36;;;;;;;0.30;0.30;;;11.50;99.90;;;;;;5094548;28;20905;-82
2022/11/04 10:32:13;;;;;;;0.40;0.30;;;11.50;99.90;;;;;;5094398;28;20521;-83
2022/11/04 10:34:45;;;;;;;0.30;0.30;;;11.50;99.90;;;;;;5094663;28;20464;-86
2022/11/04 10:37:12;;;;;;;4.23;2.43;;;11.50;99.90;;;;;;5094871;28;20428;-83
2022/11/04 10:39:43;;;;;;;0.37;0.30;;;11.60;99.90;;;;;;5094937;28;20444;-83
2022/11/04 10:42:13;;;;;;;1.00;1.00;;;11.80;99.90;;;;;;5094627;28;20555;-83
2022/11/04 10:44:40;;;;;;;0.30;0.30;;;12.00;99.90;;;;;;5094195;28;20445;-83
2022/11/04 10:47:22;;;;;;;1.80;0.37;;;12.10;99.90;;;;;;5094460;28;20445;-83
2022/11/04 10:50:04;;;;;;;5.83;0.57;;;12.20;99.90;;;;;;5094458;28;20523;-83
2022/11/04 10:52:33;;;;;;;0.60;0.30;;;12.20;99.90;;;;;;5094929;28;20511;-83
2022/11/04 10:55:00;;;;;;;0.30;0.30;;;12.20;99.90;;;;;;5094394;28;20476;-84
2022/11/04 10:57:27;;;;;;;0.47;0.40;;;12.20;99.90;;;;;;5094294;28;20474;-83
2022/11/04 10:59:56;;;;;;;0.40;0.30;;;12.20;99.90;;;;;;5093985;28;20944;-83
2022/11/04 11:02:46;;;;;;;0.40;0.30;;;12.10;99.90;;;;;;5094225;28;20476;-83
2022/11/04 11:05:20;;;;;;;0.67;0.30;;;12.00;99.90;;;;;;5094274;28;20448;-84
2022/11/04 11:07:49;;;;;;;0.40;0.30;;;12.00;99.90;;;;;;5093853;28;20899;-83
2022/11/04 11:10:19;;;;;;;0.40;0.33;;;12.10;99.90;;;;;;5093549;28;20448;-83
2022/11/04 11:12:53;;;;;;;0.30;0.30;;;12.00;99.90;;;;;;5093974;28;20498;-83
2022/11/04 11:15:31;;;;;;;2.07;0.87;;;12.10;99.90;;;;;;5093962;28;20479;-82
2022/11/04 11:18:15;;;;;;;0.30;0.30;;;12.10;99.90;;;;;;5093728;28;20472;-82
2022/11/04 11:20:47;;;;;;;0.40;0.40;;;12.00;99.90;;;;;;5093924;28;20433;-82
2022/11/04 11:23:36;;;;;;;0.40;0.30;;;12.00;99.90;;;;;;5093726;28;20824;-82
2022/11/04 11:26:04;;;;;;;0.40;0.40;;;12.00;99.90;;;;;;5093851;28;20429;-82
2022/11/04 11:28:36;;;;;;;0.40;0.30;;;11.90;99.90;;;;;;5093901;28;20448;-82
2022/11/04 11:31:10;;;;;;;0.30;0.30;;;12.00;99.90;;;;;;5094698;28;20927;-81
2022/11/04 11:33:45;;;;;;;0.30;0.20;;;12.10;99.90;;;;;;5096975;28;20441;-81
2022/11/04 11:36:18;;;;;;;0.63;0.30;;;11.90;99.90;;;;;;5093630;28;20474;-82
2022/11/04 11:39:15;;;;;;;0.43;0.40;;;11.90;99.90;;;;;;5093670;28;20437;-82
2022/11/04 11:41:52;;;;;;;0.30;0.30;;;12.00;99.90;;;;;;5077272;28;21083;-83
2022/11/04 11:44:26;;;;;;;0.50;0.40;;;12.10;99.90;;;;;;5093326;28;20930;-82
2022/11/04 11:46:55;;;;;;;0.30;0.30;;;12.20;99.90;;;;;;5093659;28;20826;-82
2022/11/04 11:49:27;;;;;;;0.37;0.30;;;12.00;99.90;;;;;;5093762;28;20441;-83
2022/11/04 11:51:55;;;;;;;0.30;0.30;;;12.10;99.90;;;;;;5093458;28;20508;-82
2022/11/04 11:54:28;;;;;;;0.30;0.30;;;12.10;99.90;;;;;;5093474;28;20448;-82
2022/11/04 11:56:56;;;;;;;0.30;0.30;;;12.20;99.90;;;;;;5093310;28;20429;-83
2022/11/04 11:59:31;;;;;;;0.30;0.30;;;12.30;99.90;;;;;;5093098;28;20951;-83
2022/11/04 12:02:24;;;;;;;0.43;0.43;;;12.30;99.90;;;;;;5093386;28;20555;-82
2022/11/04 12:04:53;;;;;;;0.30;0.30;;;12.30;99.90;;;;;;5093390;28;20421;-83
2022/11/04 12:07:31;;;;;;;1.70;0.30;;;12.20;99.90;;;;;;5093315;28;20880;-83
2022/11/04 12:10:07;;;;;;;0.30;0.30;;;12.10;99.90;;;;;;5093366;28;20433;-83
2022/11/04 12:13:00;;;;;;;0.53;0.50;;;12.20;99.90;;;;;;5093257;28;20464;-83
2022/11/04 12:15:43;;;;;;;0.30;0.30;;;12.30;99.90;;;;;;5093236;28;20472;-83
2022/11/04 12:18:43;;;;;;;0.40;0.30;;;12.10;99.90;;;;;;5093022;28;20476;-83
2022/11/04 12:21:17;;;;;;;0.40;0.40;;;12.20;99.90;;;;;;5093077;28;20501;-82
2022/11/04 12:23:50;;;;;;;0.40;0.30;;;12.40;99.90;;;;;;5096085;28;20444;-83
2022/11/04 12:26:28;;;;;;;0.50;0.30;;;12.50;99.90;;;;;;5097231;28;20435;-83
2022/11/04 12:29:10;;;;;;;2.20;0.40;;;12.60;99.90;;;;;;5097212;28;20429;-83
2022/11/04 12:31:44;;;;;;;1.60;0.30;;;12.60;99.90;;;;;;5097102;28;20471;-83
2022/11/04 12:34:22;;;;;;;0.50;0.40;;;12.80;99.90;;;;;;5097078;28;20427;-83
2022/11/04 12:37:07;;;;;;;0.53;0.30;;;12.90;99.90;;;;;;5096686;28;20500;-83
2022/11/04 12:39:50;;;;;;;0.40;0.30;;;13.10;99.90;;;;;;5097863;28;20429;-83
2022/11/04 12:42:24;;;;;;;0.93;0.40;;;13.30;99.90;;;;;;5096893;28;20818;-83
2022/11/04 12:45:07;;;;;;;0.87;0.37;;;13.10;99.90;;;;;;5096637;28;20424;-83
2022/11/04 12:47:37;;;;;;;0.30;0.30;;;13.20;99.90;;;;;;5097341;28;20429;-83
2022/11/04 12:50:12;;;;;;;0.30;0.30;;;13.30;99.90;;;;;;5096816;28;20429;-83
2022/11/04 12:53:01;;;;;;;11.23;0.70;;;13.40;99.90;;;;;;5096659;28;20554;-83
2022/11/04 12:55:37;;;;;;;0.30;0.20;;;13.60;99.90;;;;;;5096359;28;20813;-83
2022/11/04 12:58:17;;;;;;;0.50;0.50;;;13.50;99.90;;;;;;5096422;28;20911;-83
2022/11/04 13:00:48;;;;;;;0.30;0.30;;;13.50;99.90;;;;;;5096414;28;20428;-83
2022/11/04 13:03:18;;;;;;;1.33;0.80;;;13.40;99.90;;;;;;5097157;28;20498;-83
2022/11/04 13:05:52;;;;;;;0.40;0.40;;;13.10;99.90;;;;;;5098074;28;20425;-83
2022/11/04 13:08:27;;;;;;;0.37;0.33;;;13.10;99.90;;;;;;5096760;28;20440;-83
2022/11/04 13:10:59;;;;;;;0.50;0.40;;;13.00;99.90;;;;;;5096422;28;20428;-83
2022/11/04 13:13:29;;;;;;;0.73;0.40;;;13.10;99.90;;;;;;5097002;28;20472;-83
2022/11/04 13:16:00;;;;;;;0.37;0.37;;;13.10;99.90;;;;;;5096349;28;20491;-83
2022/11/04 13:18:31;;;;;;;0.60;0.30;;;13.10;99.90;;;;;;5095822;28;20513;-83
2022/11/04 13:21:03;;;;;;;0.40;0.30;;;13.00;99.90;;;;;;5096360;28;20433;-83
2022/11/04 13:23:37;;;;;;;0.30;0.30;;;13.00;99.90;;;;;;5096086;28;20496;-83
2022/11/04 13:26:09;;;;;;;4.20;0.40;;;12.90;99.90;;;;;;5096211;28;20428;-83
2022/11/04 13:28:40;;;;;;;0.30;0.30;;;12.90;99.90;;;;;;5096173;28;20436;-83
2022/11/04 13:31:16;;;;;;;0.30;0.30;;;12.80;99.90;;;;;;5096293;28;20440;-82
2022/11/04 13:33:51;;;;;;;0.30;0.30;;;12.70;99.90;;;;;;5095173;28;20433;-82
2022/11/04 13:36:30;;;;;;;0.50;0.30;;;12.50;99.90;;;;;;5095636;28;20464;-83
2022/11/04 13:39:04;;;;;;;0.30;0.30;;;12.50;99.90;;;;;;5095894;28;20482;-83
2022/11/04 13:42:12;;;;;;;1.00;0.73;;;12.30;99.90;;;;;;5095803;28;20498;-83
2022/11/04 13:44:43;;;;;;;0.30;0.30;;;12.10;99.90;;;;;;5080257;28;20962;-82